sensor_id;sensor_type;location;lat;lon;timestamp;pressure;altitude;pressure_sealevel;temperature;humidity
17260;BME280;8746;49.230;9.220;2022-07-23T00:02:14;99811.97;;;23.19;63.57
17260;BME280;8746;49.230;9.220;2022-07-23T00:04:40;99812.28;;;23.16;63.92
17260;BME280;8746;49.230;9.220;2022-07-23T00:07:05;99808.16;;;23.12;63.67
17260;BME280;8746;49.230;9.220;2022-07-23T00:09:31;99799.66;;;23.07;64.30
17260;BME280;8746;49.230;9.220;2022-07-23T00:11:56;99794.34;;;22.87;64.93
17260;BME280;8746;49.230;9.220;2022-07-23T00:14:22;99796.03;;;22.88;64.96
17260;BME280;8746;49.230;9.220;2022-07-23T00:16:47;99797.19;;;22.76;65.86
17260;BME280;8746;49.230;9.220;2022-07-23T00:19:12;99794.50;;;22.76;66.24
17260;BME280;8746;49.230;9.220;2022-07-23T00:21:38;99791.84;;;22.66;66.54
17260;BME280;8746;49.230;9.220;2022-07-23T00:24:03;99784.50;;;22.68;66.37
17260;BME280;8746;49.230;9.220;2022-07-23T00:26:29;99782.50;;;22.61;66.43
17260;BME280;8746;49.230;9.220;2022-07-23T00:28:54;99783.94;;;22.65;66.63
17260;BME280;8746;49.230;9.220;2022-07-23T00:31:20;99790.00;;;22.67;67.00
17260;BME280;8746;49.230;9.220;2022-07-23T00:33:45;99788.19;;;22.57;67.13
17260;BME280;8746;49.230;9.220;2022-07-23T00:36:10;99789.16;;;22.47;67.87
17260;BME280;8746;49.230;9.220;2022-07-23T00:38:36;99784.63;;;22.57;67.72
17260;BME280;8746;49.230;9.220;2022-07-23T00:41:01;99786.47;;;22.56;67.85
17260;BME280;8746;49.230;9.220;2022-07-23T00:43:27;99779.81;;;22.41;68.46
17260;BME280;8746;49.230;9.220;2022-07-23T00:45:52;99783.94;;;22.25;69.29
17260;BME280;8746;49.230;9.220;2022-07-23T00:48:17;99779.69;;;22.33;69.75
17260;BME280;8746;49.230;9.220;2022-07-23T00:50:43;99776.44;;;22.29;69.86
17260;BME280;8746;49.230;9.220;2022-07-23T00:53:09;99767.34;;;22.20;70.02
17260;BME280;8746;49.230;9.220;2022-07-23T00:55:35;99770.91;;;22.21;69.73
17260;BME280;8746;49.230;9.220;2022-07-23T00:58:01;99767.50;;;22.19;69.23
17260;BME280;8746;49.230;9.220;2022-07-23T01:00:27;99767.34;;;22.30;68.76
17260;BME280;8746;49.230;9.220;2022-07-23T01:02:53;99764.25;;;22.25;68.80
17260;BME280;8746;49.230;9.220;2022-07-23T01:05:18;99756.03;;;22.26;69.12
17260;BME280;8746;49.230;9.220;2022-07-23T01:07:48;99768.06;;;22.22;69.12
17260;BME280;8746;49.230;9.220;2022-07-23T01:10:13;99773.03;;;22.17;69.05
17260;BME280;8746;49.230;9.220;2022-07-23T01:12:58;99775.41;;;22.10;68.84
17260;BME280;8746;49.230;9.220;2022-07-23T01:15:24;99776.69;;;22.06;69.33
17260;BME280;8746;49.230;9.220;2022-07-23T01:17:49;99777.97;;;22.12;69.45
17260;BME280;8746;49.230;9.220;2022-07-23T01:20:15;99774.56;;;21.90;70.13
17260;BME280;8746;49.230;9.220;2022-07-23T01:22:41;99774.84;;;21.97;69.76
17260;BME280;8746;49.230;9.220;2022-07-23T01:25:06;99772.69;;;21.81;70.66
17260;BME280;8746;49.230;9.220;2022-07-23T01:27:32;99767.63;;;21.78;70.62
17260;BME280;8746;49.230;9.220;2022-07-23T01:29:59;99761.09;;;21.71;70.52
17260;BME280;8746;49.230;9.220;2022-07-23T01:32:25;99755.00;;;21.69;70.62
17260;BME280;8746;49.230;9.220;2022-07-23T01:34:51;99755.16;;;21.67;71.17
17260;BME280;8746;49.230;9.220;2022-07-23T01:37:16;99758.00;;;21.44;72.16
17260;BME280;8746;49.230;9.220;2022-07-23T01:39:41;99749.56;;;21.49;71.96
17260;BME280;8746;49.230;9.220;2022-07-23T01:42:07;99753.78;;;21.42;72.20
17260;BME280;8746;49.230;9.220;2022-07-23T01:44:32;99753.78;;;21.42;72.13
17260;BME280;8746;49.230;9.220;2022-07-23T01:46:58;99755.47;;;21.43;71.93
17260;BME280;8746;49.230;9.220;2022-07-23T01:49:23;99759.16;;;21.52;71.53
17260;BME280;8746;49.230;9.220;2022-07-23T01:51:48;99769.78;;;21.53;71.54
17260;BME280;8746;49.230;9.220;2022-07-23T01:54:31;99761.28;;;21.48;71.58
17260;BME280;8746;49.230;9.220;2022-07-23T01:56:57;99767.66;;;21.47;71.68
17260;BME280;8746;49.230;9.220;2022-07-23T01:59:23;99770.75;;;21.42;71.21
17260;BME280;8746;49.230;9.220;2022-07-23T02:01:49;99767.66;;;21.47;71.34
17260;BME280;8746;49.230;9.220;2022-07-23T02:04:21;99764.84;;;21.49;71.05
17260;BME280;8746;49.230;9.220;2022-07-23T02:06:48;99754.66;;;21.52;70.67
17260;BME280;8746;49.230;9.220;2022-07-23T02:09:14;99752.31;;;21.59;70.37
17260;BME280;8746;49.230;9.220;2022-07-23T02:11:39;99758.44;;;21.40;71.10
17260;BME280;8746;49.230;9.220;2022-07-23T02:14:05;99767.69;;;21.26;72.63
17260;BME280;8746;49.230;9.220;2022-07-23T02:16:30;99770.00;;;21.00;73.49
17260;BME280;8746;49.230;9.220;2022-07-23T02:18:56;99781.66;;;20.89;74.39
17260;BME280;8746;49.230;9.220;2022-07-23T02:21:21;99782.31;;;20.81;74.79
17260;BME280;8746;49.230;9.220;2022-07-23T02:23:47;99781.47;;;20.80;75.01
17260;BME280;8746;49.230;9.220;2022-07-23T02:26:12;99784.00;;;20.82;74.64
17260;BME280;8746;49.230;9.220;2022-07-23T02:28:38;99777.28;;;20.88;74.54
17260;BME280;8746;49.230;9.220;2022-07-23T02:31:03;99785.16;;;20.89;74.31
17260;BME280;8746;49.230;9.220;2022-07-23T02:33:29;99783.81;;;20.95;73.72
17260;BME280;8746;49.230;9.220;2022-07-23T02:35:55;99786.94;;;21.00;73.82
17260;BME280;8746;49.230;9.220;2022-07-23T02:38:20;99793.59;;;21.06;73.32
17260;BME280;8746;49.230;9.220;2022-07-23T02:40:45;99798.25;;;21.04;73.24
17260;BME280;8746;49.230;9.220;2022-07-23T02:43:11;99813.50;;;21.03;73.01
17260;BME280;8746;49.230;9.220;2022-07-23T02:45:36;99812.81;;;21.11;72.60
17260;BME280;8746;49.230;9.220;2022-07-23T02:48:02;99813.25;;;21.16;72.41
17260;BME280;8746;49.230;9.220;2022-07-23T02:50:27;99807.09;;;21.25;70.62
17260;BME280;8746;49.230;9.220;2022-07-23T02:52:53;99810.66;;;21.36;69.62
17260;BME280;8746;49.230;9.220;2022-07-23T02:55:18;99810.13;;;21.42;69.40
17260;BME280;8746;49.230;9.220;2022-07-23T02:57:44;99825.69;;;21.48;68.29
17260;BME280;8746;49.230;9.220;2022-07-23T03:00:09;99829.09;;;21.50;67.69
17260;BME280;8746;49.230;9.220;2022-07-23T03:02:35;99827.97;;;21.53;67.58
17260;BME280;8746;49.230;9.220;2022-07-23T03:05:00;99831.28;;;21.56;67.53
17260;BME280;8746;49.230;9.220;2022-07-23T03:07:26;99819.41;;;21.59;67.02
17260;BME280;8746;49.230;9.220;2022-07-23T03:09:51;99824.91;;;21.57;67.34
17260;BME280;8746;49.230;9.220;2022-07-23T03:12:17;99826.63;;;21.58;67.28
17260;BME280;8746;49.230;9.220;2022-07-23T03:14:42;99829.34;;;21.68;66.99
17260;BME280;8746;49.230;9.220;2022-07-23T03:17:08;99832.16;;;21.67;66.79
17260;BME280;8746;49.230;9.220;2022-07-23T03:19:34;99836.38;;;21.59;67.54
17260;BME280;8746;49.230;9.220;2022-07-23T03:22:00;99841.25;;;21.75;66.85
17260;BME280;8746;49.230;9.220;2022-07-23T03:24:25;99842.38;;;21.73;66.25
17260;BME280;8746;49.230;9.220;2022-07-23T03:27:10;99851.06;;;21.65;66.93
17260;BME280;8746;49.230;9.220;2022-07-23T03:29:36;99854.16;;;21.60;66.74
17260;BME280;8746;49.230;9.220;2022-07-23T03:32:03;99853.75;;;21.65;67.42
17260;BME280;8746;49.230;9.220;2022-07-23T03:34:28;99845.44;;;21.68;67.04
17260;BME280;8746;49.230;9.220;2022-07-23T03:36:54;99844.88;;;21.65;67.21
17260;BME280;8746;49.230;9.220;2022-07-23T03:39:19;99851.94;;;21.66;67.17
17260;BME280;8746;49.230;9.220;2022-07-23T03:41:44;99842.63;;;21.70;67.34
17260;BME280;8746;49.230;9.220;2022-07-23T03:44:10;99844.03;;;21.74;67.46
17260;BME280;8746;49.230;9.220;2022-07-23T03:46:35;99842.41;;;21.83;66.54
17260;BME280;8746;49.230;9.220;2022-07-23T03:49:00;99837.84;;;21.83;66.80
17260;BME280;8746;49.230;9.220;2022-07-23T03:51:26;99850.28;;;21.74;66.66
17260;BME280;8746;49.230;9.220;2022-07-23T03:53:51;99857.75;;;21.71;66.76
17260;BME280;8746;49.230;9.220;2022-07-23T03:56:17;99862.78;;;21.64;66.42
17260;BME280;8746;49.230;9.220;2022-07-23T03:58:42;99862.94;;;21.63;67.07
17260;BME280;8746;49.230;9.220;2022-07-23T04:01:07;99867.13;;;21.55;67.24
17260;BME280;8746;49.230;9.220;2022-07-23T04:03:33;99883.75;;;21.49;67.78
17260;BME280;8746;49.230;9.220;2022-07-23T04:05:58;99885.75;;;21.47;67.41
17260;BME280;8746;49.230;9.220;2022-07-23T04:08:23;99885.41;;;21.40;67.63
17260;BME280;8746;49.230;9.220;2022-07-23T04:10:50;99865.75;;;21.30;67.19
17260;BME280;8746;49.230;9.220;2022-07-23T04:13:16;99863.69;;;21.43;66.98
17260;BME280;8746;49.230;9.220;2022-07-23T04:15:41;99863.06;;;21.30;67.00
17260;BME280;8746;49.230;9.220;2022-07-23T04:18:06;99856.56;;;21.33;66.53
17260;BME280;8746;49.230;9.220;2022-07-23T04:20:33;99862.63;;;21.35;66.62
17260;BME280;8746;49.230;9.220;2022-07-23T04:22:58;99880.44;;;21.36;66.56
17260;BME280;8746;49.230;9.220;2022-07-23T04:25:23;99884.56;;;21.40;66.22
17260;BME280;8746;49.230;9.220;2022-07-23T04:27:49;99882.59;;;21.42;66.17
17260;BME280;8746;49.230;9.220;2022-07-23T04:30:14;99882.03;;;21.48;66.07
17260;BME280;8746;49.230;9.220;2022-07-23T04:32:39;99889.94;;;21.40;66.38
17260;BME280;8746;49.230;9.220;2022-07-23T04:35:05;99898.16;;;21.48;66.00
17260;BME280;8746;49.230;9.220;2022-07-23T04:37:30;99902.00;;;21.55;65.73
17260;BME280;8746;49.230;9.220;2022-07-23T04:39:56;99913.09;;;21.62;65.09
17260;BME280;8746;49.230;9.220;2022-07-23T04:42:21;99922.44;;;21.68;64.77
17260;BME280;8746;49.230;9.220;2022-07-23T04:44:47;99928.00;;;21.76;64.71
17260;BME280;8746;49.230;9.220;2022-07-23T04:47:12;99926.22;;;21.86;64.16
17260;BME280;8746;49.230;9.220;2022-07-23T04:49:37;99923.25;;;21.89;64.01
17260;BME280;8746;49.230;9.220;2022-07-23T04:52:03;99931.63;;;21.96;63.83
17260;BME280;8746;49.230;9.220;2022-07-23T04:54:28;99940.09;;;21.91;63.78
17260;BME280;8746;49.230;9.220;2022-07-23T04:56:54;99941.31;;;21.87;64.18
17260;BME280;8746;49.230;9.220;2022-07-23T04:59:19;99936.50;;;21.81;63.83
17260;BME280;8746;49.230;9.220;2022-07-23T05:01:44;99920.66;;;21.78;63.25
17260;BME280;8746;49.230;9.220;2022-07-23T05:04:10;99915.25;;;21.68;64.02
17260;BME280;8746;49.230;9.220;2022-07-23T05:06:35;99931.34;;;21.68;62.99
17260;BME280;8746;49.230;9.220;2022-07-23T05:09:00;99953.97;;;21.66;63.19
17260;BME280;8746;49.230;9.220;2022-07-23T05:11:26;99947.06;;;21.73;63.15
17260;BME280;8746;49.230;9.220;2022-07-23T05:13:51;99940.34;;;21.57;63.49
17260;BME280;8746;49.230;9.220;2022-07-23T05:16:16;99939.72;;;21.54;63.36
17260;BME280;8746;49.230;9.220;2022-07-23T05:18:42;99936.72;;;21.47;63.36
17260;BME280;8746;49.230;9.220;2022-07-23T05:21:07;99940.06;;;21.39;65.93
17260;BME280;8746;49.230;9.220;2022-07-23T05:23:32;99943.56;;;21.30;65.59
17260;BME280;8746;49.230;9.220;2022-07-23T05:25:58;99940.97;;;21.28;66.83
17260;BME280;8746;49.230;9.220;2022-07-23T05:28:23;99942.69;;;21.29;66.79
17260;BME280;8746;49.230;9.220;2022-07-23T05:30:49;99935.38;;;21.32;66.58
17260;BME280;8746;49.230;9.220;2022-07-23T05:33:14;99948.97;;;21.40;65.89
17260;BME280;8746;49.230;9.220;2022-07-23T05:35:39;99979.72;;;21.36;66.79
17260;BME280;8746;49.230;9.220;2022-07-23T05:38:05;100000.28;;;21.25;68.94
17260;BME280;8746;49.230;9.220;2022-07-23T05:40:30;100000.63;;;21.00;70.27
17260;BME280;8746;49.230;9.220;2022-07-23T05:42:56;100010.44;;;20.78;71.08
17260;BME280;8746;49.230;9.220;2022-07-23T05:45:21;100015.00;;;20.43;74.26
17260;BME280;8746;49.230;9.220;2022-07-23T05:47:47;100020.72;;;20.05;76.21
17260;BME280;8746;49.230;9.220;2022-07-23T05:50:14;100029.47;;;19.84;78.24
17260;BME280;8746;49.230;9.220;2022-07-23T05:52:40;100037.28;;;19.87;81.67
17260;BME280;8746;49.230;9.220;2022-07-23T05:55:06;100045.41;;;19.85;81.83
17260;BME280;8746;49.230;9.220;2022-07-23T05:57:32;100045.53;;;19.84;82.75
17260;BME280;8746;49.230;9.220;2022-07-23T05:59:57;100057.94;;;19.85;82.55
17260;BME280;8746;49.230;9.220;2022-07-23T06:02:23;100062.34;;;19.86;82.13
17260;BME280;8746;49.230;9.220;2022-07-23T06:04:48;100038.81;;;19.78;81.73
17260;BME280;8746;49.230;9.220;2022-07-23T06:07:13;100025.81;;;19.85;82.09
17260;BME280;8746;49.230;9.220;2022-07-23T06:09:39;100020.91;;;19.79;80.55
17260;BME280;8746;49.230;9.220;2022-07-23T06:12:05;100022.53;;;19.93;81.76
17260;BME280;8746;49.230;9.220;2022-07-23T06:14:30;100013.41;;;19.95;81.57
17260;BME280;8746;49.230;9.220;2022-07-23T06:16:55;100014.13;;;19.97;81.17
17260;BME280;8746;49.230;9.220;2022-07-23T06:19:21;100026.34;;;20.01;81.44
17260;BME280;8746;49.230;9.220;2022-07-23T06:21:46;100016.59;;;20.00;81.54
17260;BME280;8746;49.230;9.220;2022-07-23T06:24:11;100010.72;;;19.95;81.33
17260;BME280;8746;49.230;9.220;2022-07-23T06:26:37;100016.34;;;19.92;81.09
17260;BME280;8746;49.230;9.220;2022-07-23T06:29:02;100000.41;;;20.02;81.74
17260;BME280;8746;49.230;9.220;2022-07-23T06:31:28;99990.50;;;19.80;81.47
17260;BME280;8746;49.230;9.220;2022-07-23T06:33:54;99990.50;;;19.80;83.75
17260;BME280;8746;49.230;9.220;2022-07-23T06:36:19;99999.03;;;19.96;82.90
17260;BME280;8746;49.230;9.220;2022-07-23T06:38:44;100000.16;;;20.16;82.24
17260;BME280;8746;49.230;9.220;2022-07-23T06:41:10;99994.16;;;20.36;80.14
17260;BME280;8746;49.230;9.220;2022-07-23T06:43:35;99990.25;;;20.28;79.62
17260;BME280;8746;49.230;9.220;2022-07-23T06:46:01;99978.59;;;20.41;79.46
17260;BME280;8746;49.230;9.220;2022-07-23T06:48:26;99976.88;;;20.40;79.51
17260;BME280;8746;49.230;9.220;2022-07-23T06:50:53;99984.91;;;20.40;78.94
17260;BME280;8746;49.230;9.220;2022-07-23T06:53:18;99997.22;;;20.42;79.75
17260;BME280;8746;49.230;9.220;2022-07-23T06:55:44;100007.53;;;20.58;79.26
17260;BME280;8746;49.230;9.220;2022-07-23T06:58:09;100030.69;;;20.59;80.55
17260;BME280;8746;49.230;9.220;2022-07-23T07:00:35;100043.22;;;20.59;80.51
17260;BME280;8746;49.230;9.220;2022-07-23T07:03:01;100046.63;;;20.61;80.21
17260;BME280;8746;49.230;9.220;2022-07-23T07:05:26;100054.78;;;20.71;79.42
17260;BME280;8746;49.230;9.220;2022-07-23T07:07:54;100058.47;;;20.81;78.43
17260;BME280;8746;49.230;9.220;2022-07-23T07:10:20;100044.19;;;20.80;78.82
17260;BME280;8746;49.230;9.220;2022-07-23T07:12:46;100052.59;;;20.76;79.11
17260;BME280;8746;49.230;9.220;2022-07-23T07:15:11;100051.50;;;20.90;79.60
17260;BME280;8746;49.230;9.220;2022-07-23T07:17:37;100060.78;;;20.74;79.58
17260;BME280;8746;49.230;9.220;2022-07-23T07:20:04;100073.69;;;20.80;80.83
17260;BME280;8746;49.230;9.220;2022-07-23T07:22:29;100071.84;;;20.92;80.22
17260;BME280;8746;49.230;9.220;2022-07-23T07:24:55;100065.59;;;21.03;78.65
17260;BME280;8746;49.230;9.220;2022-07-23T07:27:20;100071.91;;;21.13;77.98
17260;BME280;8746;49.230;9.220;2022-07-23T07:29:45;100068.06;;;21.27;78.22
17260;BME280;8746;49.230;9.220;2022-07-23T07:32:11;100071.97;;;21.23;76.83
17260;BME280;8746;49.230;9.220;2022-07-23T07:34:36;100067.81;;;21.30;77.01
17260;BME280;8746;49.230;9.220;2022-07-23T07:37:02;100057.38;;;21.16;76.37
17260;BME280;8746;49.230;9.220;2022-07-23T07:39:27;100051.19;;;21.37;76.83
17260;BME280;8746;49.230;9.220;2022-07-23T07:41:52;100048.28;;;21.28;76.61
17260;BME280;8746;49.230;9.220;2022-07-23T07:44:18;100050.53;;;21.23;77.08
17260;BME280;8746;49.230;9.220;2022-07-23T07:46:44;100066.63;;;21.23;75.45
17260;BME280;8746;49.230;9.220;2022-07-23T07:49:09;100061.97;;;21.25;75.27
17260;BME280;8746;49.230;9.220;2022-07-23T07:51:34;100075.63;;;21.22;75.28
17260;BME280;8746;49.230;9.220;2022-07-23T07:54:00;100070.28;;;21.22;74.52
17260;BME280;8746;49.230;9.220;2022-07-23T07:56:26;100066.38;;;21.26;75.69
17260;BME280;8746;49.230;9.220;2022-07-23T07:58:51;100078.88;;;21.37;74.58
17260;BME280;8746;49.230;9.220;2022-07-23T08:01:16;100088.81;;;21.25;74.05
17260;BME280;8746;49.230;9.220;2022-07-23T08:03:42;100090.75;;;21.23;73.45
17260;BME280;8746;49.230;9.220;2022-07-23T08:06:07;100088.63;;;21.38;74.71
17260;BME280;8746;49.230;9.220;2022-07-23T08:08:33;100094.81;;;21.50;75.01
17260;BME280;8746;49.230;9.220;2022-07-23T08:10:58;100081.78;;;21.57;74.57
17260;BME280;8746;49.230;9.220;2022-07-23T08:13:24;100079.78;;;21.59;73.78
17260;BME280;8746;49.230;9.220;2022-07-23T08:15:49;100080.13;;;21.54;73.51
17260;BME280;8746;49.230;9.220;2022-07-23T08:18:14;100090.47;;;21.38;74.40
17260;BME280;8746;49.230;9.220;2022-07-23T08:20:40;100088.31;;;21.53;73.13
17260;BME280;8746;49.230;9.220;2022-07-23T08:23:07;100086.22;;;21.68;72.87
17260;BME280;8746;49.230;9.220;2022-07-23T08:25:42;100083.09;;;21.51;71.75
17260;BME280;8746;49.230;9.220;2022-07-23T08:28:10;100089.91;;;21.67;73.14
17260;BME280;8746;49.230;9.220;2022-07-23T08:30:36;100086.47;;;21.86;71.83
17260;BME280;8746;49.230;9.220;2022-07-23T08:33:05;100083.72;;;21.76;69.33
17260;BME280;8746;49.230;9.220;2022-07-23T08:35:37;100096.84;;;21.90;71.06
17260;BME280;8746;49.230;9.220;2022-07-23T08:38:05;100086.84;;;22.23;70.60
17260;BME280;8746;49.230;9.220;2022-07-23T08:40:33;100091.13;;;22.36;69.57
17260;BME280;8746;49.230;9.220;2022-07-23T08:42:59;100086.47;;;22.59;70.39
17260;BME280;8746;49.230;9.220;2022-07-23T08:45:26;100090.91;;;22.39;69.79
17260;BME280;8746;49.230;9.220;2022-07-23T08:47:54;100085.59;;;22.49;69.16
17260;BME280;8746;49.230;9.220;2022-07-23T08:50:22;100089.41;;;22.46;69.91
17260;BME280;8746;49.230;9.220;2022-07-23T08:52:49;100095.66;;;22.56;69.49
17260;BME280;8746;49.230;9.220;2022-07-23T08:55:19;100095.03;;;22.22;70.23
17260;BME280;8746;49.230;9.220;2022-07-23T08:57:47;100086.00;;;22.23;70.15
17260;BME280;8746;49.230;9.220;2022-07-23T09:00:13;100089.25;;;22.26;70.25
17260;BME280;8746;49.230;9.220;2022-07-23T09:02:43;100085.63;;;22.59;70.08
17260;BME280;8746;49.230;9.220;2022-07-23T09:05:10;100080.13;;;22.70;69.22
17260;BME280;8746;49.230;9.220;2022-07-23T09:07:37;100078.97;;;22.63;68.32
17260;BME280;8746;49.230;9.220;2022-07-23T09:10:09;100076.63;;;22.79;68.28
17260;BME280;8746;49.230;9.220;2022-07-23T09:12:35;100075.78;;;22.38;68.94
17260;BME280;8746;49.230;9.220;2022-07-23T09:15:08;100082.38;;;22.65;69.15
17260;BME280;8746;49.230;9.220;2022-07-23T09:17:41;100085.41;;;22.91;68.86
17260;BME280;8746;49.230;9.220;2022-07-23T09:20:12;100079.66;;;23.15;66.70
17260;BME280;8746;49.230;9.220;2022-07-23T09:22:44;100076.88;;;22.76;67.73
17260;BME280;8746;49.230;9.220;2022-07-23T09:25:18;100080.41;;;23.17;68.36
17260;BME280;8746;49.230;9.220;2022-07-23T09:27:55;100080.09;;;23.40;67.38
17260;BME280;8746;49.230;9.220;2022-07-23T09:30:24;100069.63;;;23.57;66.12
17260;BME280;8746;49.230;9.220;2022-07-23T09:35:53;100072.84;;;23.90;64.97
17260;BME280;8746;49.230;9.220;2022-07-23T09:38:20;100069.25;;;24.09;64.49
17260;BME280;8746;49.230;9.220;2022-07-23T09:41:07;100075.53;;;23.90;64.58
17260;BME280;8746;49.230;9.220;2022-07-23T09:43:33;100070.69;;;24.13;65.20
17260;BME280;8746;49.230;9.220;2022-07-23T09:46:21;100078.91;;;23.92;64.35
17260;BME280;8746;49.230;9.220;2022-07-23T09:48:48;100079.53;;;24.33;63.97
17260;BME280;8746;49.230;9.220;2022-07-23T09:51:14;100077.25;;;23.91;64.30
17260;BME280;8746;49.230;9.220;2022-07-23T09:53:46;100080.31;;;24.15;64.13
17260;BME280;8746;49.230;9.220;2022-07-23T09:56:13;100081.16;;;24.54;63.97
17260;BME280;8746;49.230;9.220;2022-07-23T09:58:41;100079.59;;;24.89;63.12
17260;BME280;8746;49.230;9.220;2022-07-23T10:01:12;100082.03;;;24.82;63.11
17260;BME280;8746;49.230;9.220;2022-07-23T10:03:39;100074.69;;;24.74;62.60
17260;BME280;8746;49.230;9.220;2022-07-23T10:06:05;100081.28;;;24.62;62.47
17260;BME280;8746;49.230;9.220;2022-07-23T10:08:33;100075.97;;;24.98;64.13
17260;BME280;8746;49.230;9.220;2022-07-23T10:11:00;100076.41;;;24.75;61.66
17260;BME280;8746;49.230;9.220;2022-07-23T10:13:26;100071.00;;;25.57;60.13
17260;BME280;8746;49.230;9.220;2022-07-23T10:16:10;100081.28;;;25.08;61.25
17260;BME280;8746;49.230;9.220;2022-07-23T10:18:35;100071.91;;;25.30;59.80
17260;BME280;8746;49.230;9.220;2022-07-23T10:21:05;100071.91;;;25.12;60.46
17260;BME280;8746;49.230;9.220;2022-07-23T10:23:58;100061.25;;;25.65;59.36
17260;BME280;8746;49.230;9.220;2022-07-23T10:29:23;100053.84;;;26.97;55.58
17260;BME280;8746;49.230;9.220;2022-07-23T10:32:08;100065.13;;;27.43;55.00
17260;BME280;8746;49.230;9.220;2022-07-23T10:34:59;100062.19;;;27.36;53.49
17260;BME280;8746;49.230;9.220;2022-07-23T10:37:38;100062.28;;;26.51;55.17
17260;BME280;8746;49.230;9.220;2022-07-23T10:40:15;100062.38;;;26.67;56.76
17260;BME280;8746;49.230;9.220;2022-07-23T10:42:47;100061.16;;;27.13;54.16
17260;BME280;8746;49.230;9.220;2022-07-23T10:45:26;100049.34;;;27.63;53.88
17260;BME280;8746;49.230;9.220;2022-07-23T10:47:52;100051.63;;;28.24;50.96
17260;BME280;8746;49.230;9.220;2022-07-23T10:50:27;100049.50;;;27.78;52.03
17260;BME280;8746;49.230;9.220;2022-07-23T10:53:18;100056.44;;;27.15;52.74
17260;BME280;8746;49.230;9.220;2022-07-23T10:55:51;100057.50;;;27.47;52.95
17260;BME280;8746;49.230;9.220;2022-07-23T11:01:35;100045.44;;;27.66;50.67
17260;BME280;8746;49.230;9.220;2022-07-23T11:04:02;100054.56;;;27.90;49.97
17260;BME280;8746;49.230;9.220;2022-07-23T11:09:29;100047.44;;;28.93;49.24
17260;BME280;8746;49.230;9.220;2022-07-23T11:20:19;100048.38;;;30.08;41.62
17260;BME280;8746;49.230;9.220;2022-07-23T11:27:47;100060.28;;;29.31;40.60
17260;BME280;8746;49.230;9.220;2022-07-23T11:35:41;100042.22;;;29.76;36.92
17260;BME280;8746;49.230;9.220;2022-07-23T11:38:13;100045.06;;;30.43;35.74
17260;BME280;8746;49.230;9.220;2022-07-23T11:40:39;100056.72;;;29.92;36.45
17260;BME280;8746;49.230;9.220;2022-07-23T11:43:07;100040.78;;;30.18;36.03
17260;BME280;8746;49.230;9.220;2022-07-23T11:45:45;100046.88;;;30.35;35.32
17260;BME280;8746;49.230;9.220;2022-07-23T11:50:42;100042.84;;;30.83;36.65
17260;BME280;8746;49.230;9.220;2022-07-23T11:53:08;100039.81;;;30.93;35.70
17260;BME280;8746;49.230;9.220;2022-07-23T11:55:33;100040.88;;;29.95;35.04
17260;BME280;8746;49.230;9.220;2022-07-23T11:57:59;100037.53;;;29.85;36.91
17260;BME280;8746;49.230;9.220;2022-07-23T12:00:26;100031.41;;;30.06;37.00
17260;BME280;8746;49.230;9.220;2022-07-23T12:02:55;100035.53;;;30.32;36.71
17260;BME280;8746;49.230;9.220;2022-07-23T12:05:25;100039.22;;;30.76;36.84
17260;BME280;8746;49.230;9.220;2022-07-23T12:07:53;100023.78;;;30.98;36.13
17260;BME280;8746;49.230;9.220;2022-07-23T12:10:23;100024.16;;;30.43;36.17
17260;BME280;8746;49.230;9.220;2022-07-23T12:12:59;100025.59;;;31.12;35.67
17260;BME280;8746;49.230;9.220;2022-07-23T12:15:37;100030.94;;;31.49;34.27
17260;BME280;8746;49.230;9.220;2022-07-23T12:18:05;100027.50;;;31.62;33.38
17260;BME280;8746;49.230;9.220;2022-07-23T12:20:35;100027.53;;;31.40;34.48
17260;BME280;8746;49.230;9.220;2022-07-23T12:23:04;100025.69;;;31.69;34.00
17260;BME280;8746;49.230;9.220;2022-07-23T12:25:32;100010.97;;;32.27;31.89
17260;BME280;8746;49.230;9.220;2022-07-23T12:28:08;100015.94;;;32.58;32.28
17260;BME280;8746;49.230;9.220;2022-07-23T12:33:25;100012.78;;;32.61;32.31
17260;BME280;8746;49.230;9.220;2022-07-23T12:35:54;100022.22;;;33.61;31.55
17260;BME280;8746;49.230;9.220;2022-07-23T12:38:22;100017.13;;;32.42;33.65
17260;BME280;8746;49.230;9.220;2022-07-23T12:40:50;100020.00;;;32.76;32.13
17260;BME280;8746;49.230;9.220;2022-07-23T12:43:51;100013.78;;;33.29;31.70
17260;BME280;8746;49.230;9.220;2022-07-23T12:46:19;100017.53;;;34.02;30.92
17260;BME280;8746;49.230;9.220;2022-07-23T12:54:09;100009.38;;;34.54;30.13
17260;BME280;8746;49.230;9.220;2022-07-23T12:56:37;100008.50;;;35.31;29.69
17260;BME280;8746;49.230;9.220;2022-07-23T13:01:31;100017.59;;;36.38;27.24
17260;BME280;8746;49.230;9.220;2022-07-23T13:06:43;100009.25;;;34.81;28.95
17260;BME280;8746;49.230;9.220;2022-07-23T13:09:20;100027.06;;;33.59;30.99
17260;BME280;8746;49.230;9.220;2022-07-23T13:11:46;100018.53;;;34.21;29.79
17260;BME280;8746;49.230;9.220;2022-07-23T13:14:13;100017.31;;;34.69;29.03
17260;BME280;8746;49.230;9.220;2022-07-23T13:16:40;100033.06;;;34.28;29.38
17260;BME280;8746;49.230;9.220;2022-07-23T13:19:06;100024.38;;;34.90;28.86
17260;BME280;8746;49.230;9.220;2022-07-23T13:21:32;100030.81;;;35.35;28.35
17260;BME280;8746;49.230;9.220;2022-07-23T13:23:57;100029.94;;;36.29;27.15
17260;BME280;8746;49.230;9.220;2022-07-23T13:26:24;100014.88;;;36.68;26.84
17260;BME280;8746;49.230;9.220;2022-07-23T13:28:49;100034.63;;;35.59;27.51
17260;BME280;8746;49.230;9.220;2022-07-23T13:31:16;100029.06;;;35.15;28.16
17260;BME280;8746;49.230;9.220;2022-07-23T13:33:41;100034.84;;;33.76;30.63
17260;BME280;8746;49.230;9.220;2022-07-23T13:36:07;100030.19;;;33.16;30.68
17260;BME280;8746;49.230;9.220;2022-07-23T13:38:32;100032.97;;;32.67;31.46
17260;BME280;8746;49.230;9.220;2022-07-23T13:40:58;100028.09;;;33.45;30.58
17260;BME280;8746;49.230;9.220;2022-07-23T13:43:25;100026.56;;;33.02;30.54
17260;BME280;8746;49.230;9.220;2022-07-23T13:45:51;100028.44;;;32.39;31.96
17260;BME280;8746;49.230;9.220;2022-07-23T13:48:17;100031.53;;;31.94;32.32
17260;BME280;8746;49.230;9.220;2022-07-23T13:50:43;100027.31;;;31.42;33.21
17260;BME280;8746;49.230;9.220;2022-07-23T13:53:12;100027.75;;;30.80;33.43